Time;durP1;ratioP1;P1;durP2;ratioP2;P2;SDS_P1;SDS_P2;PMS_P1;PMS_P2;Temp;Humidity;BMP_temperature;BMP_pressure;BME280_temperature;BME280_humidity;BME280_pressure;Samples;Min_cycle;Max_cycle;Signal;HPM_P1;HPM_P2
2021/10/27 00:00:37;;;;;;;0.70;0.50;;;12.90;99.90;;;;;;5052198;28;20215;-70
2021/10/27 00:03:02;;;;;;;0.70;0.60;;;13.00;99.90;;;;;;5054976;28;20182;-70
2021/10/27 00:05:29;;;;;;;0.77;0.73;;;13.00;99.90;;;;;;5054038;28;20425;-70
2021/10/27 00:07:54;;;;;;;0.80;0.70;;;13.00;99.90;;;;;;5052307;28;20171;-69
2021/10/27 00:10:20;;;;;;;0.70;0.50;;;13.00;99.90;;;;;;5054341;28;20424;-69
2021/10/27 00:12:46;;;;;;;0.70;0.60;;;13.00;99.90;;;;;;5053644;28;20266;-69
2021/10/27 00:15:14;;;;;;;0.70;0.50;;;13.00;99.90;;;;;;5045844;28;20201;-69
2021/10/27 00:17:40;;;;;;;0.70;0.50;;;13.00;99.90;;;;;;5052907;28;20471;-69
2021/10/27 00:20:08;;;;;;;0.70;0.50;;;13.00;99.90;;;;;;5049926;28;20468;-69
2021/10/27 00:22:34;;;;;;;0.70;0.60;;;13.00;99.90;;;;;;5048126;28;20810;-71
2021/10/27 00:25:00;;;;;;;0.80;0.60;;;13.00;99.90;;;;;;5054592;28;20495;-70
2021/10/27 00:27:26;;;;;;;0.70;0.50;;;13.00;99.90;;;;;;5050757;28;20545;-70
2021/10/27 00:29:52;;;;;;;0.70;0.50;;;13.00;99.90;;;;;;5053925;28;20214;-69
2021/10/27 00:32:18;;;;;;;0.70;0.50;;;13.00;99.90;;;;;;5051039;28;20461;-69
2021/10/27 00:34:43;;;;;;;0.80;0.60;;;13.00;99.90;;;;;;5054574;28;20560;-69
2021/10/27 00:37:09;;;;;;;0.70;0.50;;;13.00;99.90;;;;;;5053383;28;20237;-69
2021/10/27 00:39:35;;;;;;;1.53;1.00;;;13.00;99.90;;;;;;5052854;28;20198;-69
2021/10/27 00:42:03;;;;;;;0.70;0.50;;;13.00;99.90;;;;;;5051419;28;20178;-69
2021/10/27 00:44:29;;;;;;;0.70;0.50;;;12.90;99.90;;;;;;5053293;28;20491;-70
2021/10/27 00:47:03;;;;;;;0.70;0.50;;;12.90;99.90;;;;;;5050854;28;20437;-70
2021/10/27 00:49:31;;;;;;;0.90;0.60;;;12.80;99.90;;;;;;5052217;28;20190;-70
2021/10/27 00:51:58;;;;;;;0.70;0.60;;;12.80;99.90;;;;;;5052241;28;20433;-70
2021/10/27 00:54:24;;;;;;;0.70;0.50;;;12.80;99.90;;;;;;5052263;28;20441;-70
2021/10/27 00:56:52;;;;;;;0.80;0.70;;;12.80;99.90;;;;;;5051709;28;20464;-70
2021/10/27 00:59:25;;;;;;;0.70;0.50;;;12.80;99.90;;;;;;5048755;28;20474;-69
2021/10/27 01:01:53;;;;;;;1.53;1.33;;;12.80;99.90;;;;;;5050940;28;20456;-69
2021/10/27 01:04:20;;;;;;;0.83;0.50;;;12.80;99.90;;;;;;5051960;28;20430;-70
2021/10/27 01:06:46;;;;;;;0.70;0.50;;;12.80;99.90;;;;;;5052488;28;20898;-70
2021/10/27 01:09:12;;;;;;;0.70;0.60;;;12.80;99.90;;;;;;5052339;28;20475;-69
2021/10/27 01:11:38;;;;;;;0.70;0.50;;;12.80;99.90;;;;;;5053069;28;20864;-70
2021/10/27 01:14:05;;;;;;;0.70;0.60;;;12.80;99.90;;;;;;5052245;28;20666;-69
2021/10/27 01:16:31;;;;;;;0.70;0.50;;;12.80;99.90;;;;;;5046141;28;20449;-70
2021/10/27 01:18:56;;;;;;;0.70;0.50;;;12.80;99.90;;;;;;5046600;28;20425;-70
2021/10/27 01:21:24;;;;;;;0.70;0.50;;;12.80;99.90;;;;;;5052663;28;20173;-70
2021/10/27 01:23:49;;;;;;;0.70;0.50;;;12.80;99.90;;;;;;5048489;28;20178;-70
2021/10/27 01:26:15;;;;;;;0.70;0.60;;;12.80;99.90;;;;;;5046932;28;20433;-70
2021/10/27 01:28:42;;;;;;;0.70;0.50;;;12.70;99.90;;;;;;5052804;28;20248;-69
2021/10/27 01:31:10;;;;;;;0.70;0.60;;;12.80;99.90;;;;;;5053164;28;20236;-69
2021/10/27 01:33:36;;;;;;;0.70;0.50;;;12.80;99.90;;;;;;5051222;28;20432;-69
2021/10/27 01:36:03;;;;;;;1.03;0.93;;;12.70;99.90;;;;;;5051398;28;20453;-70
2021/10/27 01:38:29;;;;;;;1.80;0.60;;;12.80;99.90;;;;;;5053163;28;20925;-70
2021/10/27 01:40:55;;;;;;;0.70;0.60;;;12.80;99.90;;;;;;5052228;28;20460;-70
2021/10/27 01:43:21;;;;;;;0.70;0.50;;;12.80;99.90;;;;;;5053348;28;20417;-69
2021/10/27 01:45:46;;;;;;;1.73;1.63;;;12.80;99.90;;;;;;5052207;28;20194;-69
2021/10/27 01:48:12;;;;;;;0.70;0.50;;;12.80;99.90;;;;;;5050641;28;20257;-70
2021/10/27 01:50:37;;;;;;;0.90;0.70;;;12.80;99.90;;;;;;5051926;28;20179;-69
2021/10/27 01:53:03;;;;;;;0.70;0.50;;;12.80;99.90;;;;;;5052647;28;20175;-70
2021/10/27 01:55:29;;;;;;;0.70;0.50;;;12.80;99.90;;;;;;5051133;28;20644;-70
2021/10/27 01:57:55;;;;;;;0.70;0.50;;;12.80;99.90;;;;;;5060968;28;20456;-70
2021/10/27 02:00:20;;;;;;;0.70;0.50;;;12.80;99.90;;;;;;5050757;28;20190;-68
2021/10/27 02:02:46;;;;;;;0.70;0.50;;;12.80;99.90;;;;;;5049940;28;20499;-69
2021/10/27 02:05:13;;;;;;;1.00;0.60;;;12.80;99.90;;;;;;5052076;28;20595;-69
2021/10/27 02:07:39;;;;;;;0.70;0.50;;;12.80;99.90;;;;;;5049865;28;20697;-69
2021/10/27 02:10:07;;;;;;;0.70;0.50;;;12.80;99.90;;;;;;5048339;28;20973;-68
2021/10/27 02:12:33;;;;;;;0.70;0.50;;;12.90;99.90;;;;;;5052751;28;20421;-69
2021/10/27 02:14:59;;;;;;;0.70;0.50;;;12.90;99.90;;;;;;5050508;28;20425;-70
2021/10/27 02:17:24;;;;;;;0.70;0.50;;;12.90;99.90;;;;;;5048829;28;20449;-70
2021/10/27 02:19:50;;;;;;;0.80;0.70;;;12.90;99.90;;;;;;5048917;28;20229;-69
2021/10/27 02:22:15;;;;;;;0.93;0.60;;;12.90;99.90;;;;;;5052652;28;20171;-69
2021/10/27 02:24:41;;;;;;;0.70;0.50;;;12.80;99.90;;;;;;5052619;28;20594;-70
2021/10/27 02:27:07;;;;;;;0.70;0.50;;;12.80;99.90;;;;;;5051130;28;20683;-69
2021/10/27 02:29:32;;;;;;;0.70;0.60;;;12.80;99.90;;;;;;5048277;28;20632;-69
2021/10/27 02:31:58;;;;;;;0.70;0.50;;;12.80;99.90;;;;;;5049004;28;20179;-70
2021/10/27 02:34:24;;;;;;;2.10;2.00;;;12.80;99.90;;;;;;5046948;28;20180;-70
2021/10/27 02:36:49;;;;;;;0.70;0.50;;;12.80;99.90;;;;;;5047897;28;20203;-69
2021/10/27 02:39:15;;;;;;;0.70;0.50;;;12.80;99.90;;;;;;5059127;28;20186;-69
2021/10/27 02:41:40;;;;;;;0.70;0.50;;;12.80;99.90;;;;;;5049661;28;20175;-69
2021/10/27 02:44:06;;;;;;;0.70;0.50;;;12.80;99.90;;;;;;5050993;28;20171;-70
2021/10/27 02:46:31;;;;;;;0.70;0.50;;;12.80;99.90;;;;;;5051221;28;20767;-70
2021/10/27 02:48:57;;;;;;;0.70;0.50;;;12.80;99.90;;;;;;5047717;28;20190;-70
2021/10/27 02:51:22;;;;;;;0.70;0.50;;;12.70;99.90;;;;;;5050984;28;20249;-70
2021/10/27 02:53:48;;;;;;;0.70;0.60;;;12.80;99.90;;;;;;5050501;28;20198;-71
2021/10/27 02:56:14;;;;;;;0.70;0.50;;;12.80;99.90;;;;;;5048894;28;20209;-68
2021/10/27 02:58:39;;;;;;;0.70;0.50;;;12.70;99.90;;;;;;5049367;28;20199;-69
2021/10/27 03:01:05;;;;;;;1.30;0.80;;;12.70;99.90;;;;;;5048170;28;20203;-69
2021/10/27 03:03:31;;;;;;;0.70;0.50;;;12.70;99.90;;;;;;5049398;28;20174;-69
2021/10/27 03:05:57;;;;;;;0.80;0.60;;;12.60;99.90;;;;;;5049758;28;20800;-69
2021/10/27 03:08:22;;;;;;;0.70;0.50;;;12.60;99.90;;;;;;5049299;28;20444;-69
2021/10/27 03:10:48;;;;;;;0.70;0.50;;;12.50;99.90;;;;;;5050037;28;20198;-69
2021/10/27 03:13:14;;;;;;;0.70;0.50;;;12.50;99.90;;;;;;5049434;28;20204;-69
2021/10/27 03:15:39;;;;;;;0.70;0.50;;;12.40;99.90;;;;;;5048328;28;20571;-69
2021/10/27 03:18:05;;;;;;;1.63;0.87;;;12.30;99.90;;;;;;5050031;28;20518;-69
2021/10/27 03:20:31;;;;;;;0.70;0.50;;;12.30;99.90;;;;;;5047402;28;20213;-69
2021/10/27 03:22:56;;;;;;;0.70;0.50;;;12.30;99.90;;;;;;5049976;28;20190;-69
2021/10/27 03:25:22;;;;;;;0.83;0.83;;;12.20;99.90;;;;;;5047987;28;20743;-70
2021/10/27 03:27:47;;;;;;;0.70;0.50;;;12.20;99.90;;;;;;5049292;28;20211;-70
2021/10/27 03:30:13;;;;;;;0.70;0.50;;;12.10;99.90;;;;;;5050869;28;20187;-69
2021/10/27 03:32:39;;;;;;;0.70;0.50;;;12.10;99.90;;;;;;5050142;28;20261;-69
2021/10/27 03:35:05;;;;;;;0.70;0.50;;;12.10;99.90;;;;;;5050364;28;20179;-70
2021/10/27 03:37:30;;;;;;;0.90;0.73;;;12.00;99.90;;;;;;5049750;28;20458;-69
2021/10/27 03:39:56;;;;;;;2.30;1.03;;;11.90;99.90;;;;;;5049641;28;20461;-69
2021/10/27 03:42:22;;;;;;;0.70;0.50;;;11.90;99.90;;;;;;5049998;28;20179;-70
2021/10/27 03:44:47;;;;;;;0.70;0.50;;;11.80;99.90;;;;;;5050621;28;20183;-70
2021/10/27 03:47:13;;;;;;;0.70;0.50;;;11.70;99.90;;;;;;5046889;28;20709;-70
2021/10/27 03:49:38;;;;;;;0.80;0.70;;;11.80;99.90;;;;;;5051873;28;20205;-70
2021/10/27 03:52:04;;;;;;;2.13;0.93;;;11.70;99.90;;;;;;5051277;28;20187;-70
2021/10/27 03:54:30;;;;;;;0.70;0.50;;;11.60;99.90;;;;;;5051213;28;20189;-70
2021/10/27 03:56:56;;;;;;;0.80;0.70;;;11.60;99.90;;;;;;5050537;28;20544;-70
2021/10/27 03:59:21;;;;;;;0.70;0.50;;;11.60;99.90;;;;;;5051216;28;20256;-68
2021/10/27 04:01:47;;;;;;;0.70;0.50;;;11.60;99.90;;;;;;5043094;28;20179;-70
2021/10/27 04:04:12;;;;;;;0.70;0.50;;;11.60;99.90;;;;;;5051231;28;20544;-70
2021/10/27 04:06:38;;;;;;;0.70;0.50;;;11.50;99.90;;;;;;5050826;28;20193;-70
2021/10/27 04:09:03;;;;;;;0.70;0.50;;;11.50;99.90;;;;;;5050636;28;20598;-70
2021/10/27 04:11:29;;;;;;;1.10;0.70;;;11.50;99.90;;;;;;5050233;28;20174;-70
2021/10/27 04:13:55;;;;;;;0.70;0.50;;;11.50;99.90;;;;;;5049692;28;20313;-70
2021/10/27 04:16:20;;;;;;;0.93;0.60;;;11.50;99.90;;;;;;5049196;28;20453;-70
2021/10/27 04:18:46;;;;;;;0.70;0.50;;;11.50;99.90;;;;;;5047628;28;20185;-70
2021/10/27 04:21:11;;;;;;;0.70;0.50;;;11.40;99.90;;;;;;5048190;28;20214;-70
2021/10/27 04:23:37;;;;;;;1.03;0.60;;;11.40;99.90;;;;;;5048218;28;20183;-70
2021/10/27 04:26:02;;;;;;;1.43;0.70;;;11.40;99.90;;;;;;5048422;28;20707;-70
2021/10/27 04:28:28;;;;;;;0.70;0.50;;;11.40;99.90;;;;;;5050652;28;20174;-69
2021/10/27 04:30:53;;;;;;;0.70;0.50;;;11.40;99.90;;;;;;5050305;28;20670;-70
2021/10/27 04:33:21;;;;;;;3.00;2.77;;;11.40;99.90;;;;;;5049252;28;20179;-70
2021/10/27 04:35:48;;;;;;;0.70;0.50;;;11.50;99.90;;;;;;5049817;28;20198;-69
2021/10/27 04:38:16;;;;;;;1.37;1.17;;;11.60;99.90;;;;;;5053337;28;20443;-68
2021/10/27 04:40:42;;;;;;;0.70;0.50;;;11.60;99.90;;;;;;5052681;28;20464;-71
2021/10/27 04:43:08;;;;;;;0.80;0.60;;;11.60;99.90;;;;;;5053230;28;20451;-68
2021/10/27 04:45:34;;;;;;;0.70;0.50;;;11.60;99.90;;;;;;5053466;28;20423;-68
2021/10/27 04:48:00;;;;;;;0.70;0.50;;;11.60;99.90;;;;;;5053315;28;20449;-69
2021/10/27 04:50:25;;;;;;;0.70;0.50;;;11.60;99.90;;;;;;5053046;28;20461;-70
2021/10/27 04:52:51;;;;;;;0.70;0.50;;;11.60;99.90;;;;;;5054129;28;20543;-70
2021/10/27 04:55:16;;;;;;;0.70;0.50;;;11.60;99.90;;;;;;5052493;28;20675;-70
2021/10/27 04:57:42;;;;;;;0.80;0.60;;;11.60;99.90;;;;;;5052660;28;20293;-70
2021/10/27 05:00:08;;;;;;;0.70;0.50;;;11.60;99.90;;;;;;5053351;28;20195;-70
2021/10/27 05:02:34;;;;;;;0.70;0.50;;;11.60;99.90;;;;;;5052912;28;20193;-70
2021/10/27 05:04:59;;;;;;;0.70;0.50;;;11.60;99.90;;;;;;5050652;28;20425;-70
2021/10/27 05:07:25;;;;;;;1.00;0.57;;;11.60;99.90;;;;;;5053480;28;20226;-70
2021/10/27 05:09:51;;;;;;;0.70;0.70;;;11.60;99.90;;;;;;5052462;28;20179;-70
2021/10/27 05:12:16;;;;;;;1.20;0.70;;;11.60;99.90;;;;;;5053157;28;20425;-69
2021/10/27 05:14:42;;;;;;;1.17;0.60;;;11.60;99.90;;;;;;5052794;28;20178;-69
2021/10/27 05:17:10;;;;;;;0.90;0.60;;;11.70;99.90;;;;;;5051550;28;20196;-69
2021/10/27 05:19:40;;;;;;;0.70;0.50;;;11.60;99.90;;;;;;5051893;28;20693;-69
2021/10/27 05:22:07;;;;;;;0.70;0.50;;;11.70;99.90;;;;;;5051669;28;20428;-69
2021/10/27 05:24:33;;;;;;;0.83;0.77;;;11.60;99.90;;;;;;5050462;28;20814;-69
2021/10/27 05:26:59;;;;;;;1.10;1.00;;;11.70;99.90;;;;;;5051675;28;20884;-69
2021/10/27 05:29:25;;;;;;;1.10;0.67;;;11.70;99.90;;;;;;5052902;28;20425;-70
2021/10/27 05:31:50;;;;;;;0.70;0.50;;;11.70;99.90;;;;;;5052049;28;20559;-69
2021/10/27 05:34:16;;;;;;;0.70;0.50;;;11.60;99.90;;;;;;5051538;28;20261;-70
2021/10/27 05:36:42;;;;;;;1.17;1.07;;;11.60;99.90;;;;;;5052349;28;20637;-70
2021/10/27 05:39:09;;;;;;;2.30;0.87;;;11.60;99.90;;;;;;5051824;28;20174;-69
2021/10/27 05:41:35;;;;;;;1.93;0.90;;;11.70;99.90;;;;;;5053448;28;20770;-69
2021/10/27 05:44:02;;;;;;;1.27;0.70;;;11.70;99.90;;;;;;5052313;28;20482;-70
2021/10/27 05:46:28;;;;;;;0.70;0.50;;;11.70;99.90;;;;;;5051624;28;20224;-69
2021/10/27 05:49:06;;;;;;;0.80;0.80;;;11.70;99.90;;;;;;5050997;28;20951;-70
2021/10/27 05:51:57;;;;;;;0.90;0.70;;;11.70;99.90;;;;;;5051192;28;20487;-70
2021/10/27 05:57:07;;;;;;;1.00;0.77;;;11.80;99.90;;;;;;5052081;28;20972;-69
2021/10/27 05:59:33;;;;;;;0.97;0.87;;;11.80;99.90;;;;;;5050874;28;21419;-70
2021/10/27 06:01:59;;;;;;;0.70;0.50;;;11.80;99.90;;;;;;5051057;28;20437;-70
2021/10/27 06:04:25;;;;;;;0.70;0.60;;;11.80;99.90;;;;;;5050408;28;20175;-70
2021/10/27 06:06:50;;;;;;;1.00;0.60;;;11.90;99.90;;;;;;5051267;28;20441;-70
2021/10/27 06:09:16;;;;;;;1.23;0.70;;;11.90;99.90;;;;;;5051436;28;20432;-70
2021/10/27 06:11:43;;;;;;;1.43;1.33;;;11.90;99.90;;;;;;5050622;28;20179;-69
2021/10/27 06:14:09;;;;;;;0.80;0.63;;;11.80;99.90;;;;;;5051185;28;20472;-70
2021/10/27 06:16:35;;;;;;;1.07;1.07;;;11.80;99.90;;;;;;5050574;28;20603;-70
2021/10/27 06:19:00;;;;;;;0.70;0.60;;;11.90;99.90;;;;;;5051842;28;20566;-70
2021/10/27 06:21:26;;;;;;;0.70;0.53;;;11.80;99.90;;;;;;5049449;28;20464;-70
2021/10/27 06:23:53;;;;;;;0.80;0.60;;;11.80;99.90;;;;;;5052432;28;20171;-69
2021/10/27 06:26:20;;;;;;;0.70;0.50;;;11.70;99.90;;;;;;5058654;28;20430;-70
2021/10/27 06:29:02;;;;;;;1.27;1.10;;;11.70;99.90;;;;;;5048233;28;20517;-70
2021/10/27 06:31:33;;;;;;;0.70;0.50;;;11.70;99.90;;;;;;5052620;28;20421;-70
2021/10/27 06:34:19;;;;;;;0.90;0.80;;;11.70;99.90;;;;;;5051644;28;20433;-69
2021/10/27 06:45:55;;;;;;;0.80;0.70;;;11.80;99.90;;;;;;5051816;28;21847;-69
2021/10/27 06:47:43;;;;;;;1.20;1.10;;;11.80;99.90;;;;;;5051698;28;20437;-69
2021/10/27 06:50:09;;;;;;;2.70;1.30;;;11.80;99.90;;;;;;5050920;28;20922;-69
2021/10/27 06:52:34;;;;;;;0.77;0.60;;;11.70;99.90;;;;;;5052111;28;20540;-69
2021/10/27 06:55:00;;;;;;;0.73;0.67;;;11.70;99.90;;;;;;5049859;28;20629;-68
2021/10/27 06:57:27;;;;;;;1.00;0.80;;;11.70;99.90;;;;;;5051178;28;20211;-69
2021/10/27 06:59:59;;;;;;;4.70;1.00;;;11.80;99.90;;;;;;5051954;28;20240;-69
2021/10/27 07:15:56;;;;;;;1.17;0.70;;;12.30;99.90;;;;;;5048910;28;20464;-68
2021/10/27 07:18:22;;;;;;;0.70;0.50;;;12.40;99.90;;;;;;5049768;28;20429;-68
2021/10/27 07:20:47;;;;;;;0.80;0.60;;;12.50;99.90;;;;;;5048190;28;20202;-68
2021/10/27 07:23:13;;;;;;;1.80;1.70;;;12.40;99.90;;;;;;5048900;28;20175;-68
2021/10/27 07:25:39;;;;;;;0.70;0.50;;;12.60;99.90;;;;;;5049386;28;20179;-68
2021/10/27 07:28:06;;;;;;;0.80;0.60;;;12.60;99.90;;;;;;5046032;28;20428;-68
2021/10/27 07:30:32;;;;;;;0.70;0.57;;;12.70;99.90;;;;;;5048458;28;20453;-69
2021/10/27 07:32:58;;;;;;;0.80;0.77;;;12.70;99.90;;;;;;5050825;28;20456;-69
2021/10/27 07:35:32;;;;;;;0.70;0.50;;;12.80;99.90;;;;;;5049039;28;20479;-68
2021/10/27 07:40:56;;;;;;;0.70;0.50;;;12.80;99.90;;;;;;5029506;28;20464;-68
2021/10/27 07:43:24;;;;;;;0.70;0.50;;;12.80;99.90;;;;;;5050756;28;20445;-70
2021/10/27 07:45:50;;;;;;;0.73;0.63;;;12.90;99.90;;;;;;5050454;28;20213;-68
2021/10/27 07:48:17;;;;;;;1.10;0.97;;;12.80;99.90;;;;;;5050219;28;20810;-68
2021/10/27 07:50:42;;;;;;;0.70;0.53;;;12.80;99.90;;;;;;5049767;28;20276;-68
2021/10/27 07:53:11;;;;;;;1.13;1.03;;;12.80;99.90;;;;;;5059834;28;20961;-68
2021/10/27 07:55:42;;;;;;;0.70;0.60;;;12.80;99.90;;;;;;5050052;28;20224;-68
2021/10/27 07:58:09;;;;;;;1.70;0.70;;;12.80;99.90;;;;;;5047877;28;20452;-68
2021/10/27 08:00:35;;;;;;;0.70;0.50;;;12.90;99.90;;;;;;5048378;28;20457;-69
2021/10/27 08:03:02;;;;;;;0.83;0.60;;;12.90;99.90;;;;;;5047968;28;20422;-69
2021/10/27 08:05:30;;;;;;;1.43;1.33;;;12.90;99.90;;;;;;5050291;28;20429;-68
2021/10/27 08:07:57;;;;;;;1.33;0.70;;;12.90;99.90;;;;;;5048310;28;20833;-68
2021/10/27 08:10:24;;;;;;;5.43;1.77;;;12.90;99.90;;;;;;5050192;28;20425;-68
2021/10/27 08:12:50;;;;;;;0.70;0.50;;;13.00;99.90;;;;;;5067678;28;20429;-68
2021/10/27 08:15:18;;;;;;;0.70;0.50;;;13.00;99.90;;;;;;5052664;28;20429;-68
2021/10/27 08:17:43;;;;;;;0.80;0.70;;;13.10;99.90;;;;;;5043580;28;20281;-68
2021/10/27 08:20:11;;;;;;;1.20;1.10;;;13.20;99.90;;;;;;5050428;28;21519;-68
2021/10/27 08:22:38;;;;;;;1.33;0.77;;;13.20;99.90;;;;;;5051882;28;20171;-68
2021/10/27 08:25:05;;;;;;;0.70;0.60;;;13.20;99.90;;;;;;5054458;28;20500;-68
2021/10/27 08:27:37;;;;;;;1.00;0.80;;;13.30;99.90;;;;;;5053406;28;20883;-68
2021/10/27 08:30:10;;;;;;;0.70;0.50;;;13.30;99.90;;;;;;5050309;28;20471;-69
2021/10/27 08:32:49;;;;;;;5.97;0.90;;;13.40;99.90;;;;;;5054757;28;20421;-68
2021/10/27 08:35:15;;;;;;;0.80;0.67;;;13.40;99.90;;;;;;5037719;28;20417;-69
2021/10/27 08:37:43;;;;;;;0.90;0.80;;;13.50;99.90;;;;;;5053038;28;20456;-69
2021/10/27 08:40:09;;;;;;;0.70;0.50;;;13.50;99.90;;;;;;5042849;28;20453;-68
2021/10/27 08:42:35;;;;;;;0.70;0.60;;;13.60;99.90;;;;;;5050820;28;21002;-69
2021/10/27 08:45:01;;;;;;;0.70;0.60;;;13.70;99.90;;;;;;5053212;28;20429;-68
2021/10/27 08:47:28;;;;;;;0.90;0.90;;;13.70;99.90;;;;;;5051050;28;20643;-68
2021/10/27 08:49:55;;;;;;;2.13;0.70;;;13.70;99.90;;;;;;5053449;28;20198;-68
2021/10/27 08:52:21;;;;;;;0.70;0.50;;;13.80;99.90;;;;;;5054381;28;20774;-68
2021/10/27 08:54:47;;;;;;;1.33;0.97;;;13.90;99.90;;;;;;5053981;28;20418;-68
2021/10/27 08:57:13;;;;;;;0.70;0.67;;;13.90;99.90;;;;;;5052977;28;20828;-68
2021/10/27 08:59:58;;;;;;;0.80;0.70;;;13.90;99.90;;;;;;5050999;28;20206;-68
2021/10/27 09:02:46;;;;;;;0.70;0.50;;;14.00;99.90;;;;;;5051154;28;20421;-68
2021/10/27 09:08:14;;;;;;;1.47;0.60;;;14.10;99.90;;;;;;5052570;28;20787;-69
2021/10/27 09:36:17;;;;;;;2.87;1.13;;;14.70;99.90;;;;;;5029962;28;20878;-69
2021/10/27 10:06:04;;;;;;;0.70;0.50;;;15.00;99.90;;;;;;5050785;28;20452;-69
2021/10/27 10:08:31;;;;;;;1.53;1.43;;;15.00;99.90;;;;;;5050958;28;20774;-68
2021/10/27 10:10:57;;;;;;;1.50;1.40;;;15.20;99.90;;;;;;5047161;28;22170;-69
2021/10/27 10:13:23;;;;;;;1.00;0.70;;;15.30;99.90;;;;;;5052118;28;20426;-69
2021/10/27 10:15:49;;;;;;;0.70;0.60;;;15.30;99.90;;;;;;5050362;28;20191;-69
2021/10/27 10:18:21;;;;;;;2.13;2.00;;;15.40;99.90;;;;;;5045011;28;20444;-69
2021/10/27 10:20:50;;;;;;;0.70;0.50;;;15.60;99.90;;;;;;5049340;28;20464;-68
2021/10/27 10:23:21;;;;;;;0.70;0.50;;;15.80;99.90;;;;;;5048987;28;20430;-69
2021/10/27 10:25:53;;;;;;;0.70;0.57;;;16.00;99.90;;;;;;5050155;28;20437;-68
2021/10/27 10:28:37;;;;;;;0.70;0.50;;;16.20;99.90;;;;;;5047577;28;20456;-68
2021/10/27 10:31:04;;;;;;;0.80;0.70;;;16.40;99.90;;;;;;5045120;28;20429;-69
2021/10/27 10:33:44;;;;;;;2.73;0.70;;;16.70;99.90;;;;;;5051714;28;20445;-68
2021/10/27 10:36:25;;;;;;;0.70;0.57;;;16.80;99.90;;;;;;5055611;28;20456;-69
2021/10/27 10:45:07;;;;;;;0.80;0.80;;;17.10;99.90;;;;;;5047433;28;20950;-69
2021/10/27 10:57:01;;;;;;;1.00;0.67;;;17.40;99.90;;;;;;5051592;28;20432;-69
2021/10/27 10:59:49;;;;;;;1.33;0.70;;;17.60;99.90;;;;;;5042950;28;20440;-69
2021/10/27 11:22:59;;;;;;;1.07;0.70;;;21.30;99.90;;;;;;5041650;28;20447;-69
2021/10/27 11:44:47;;;;;;;1.10;0.67;;;23.50;99.10;;;;;;5050530;28;20449;-69
2021/10/27 11:47:32;;;;;;;1.33;1.23;;;23.90;99.90;;;;;;5054081;28;20437;-69
2021/10/27 11:49:58;;;;;;;0.90;0.80;;;25.00;98.00;;;;;;5068529;28;20425;-69
2021/10/27 11:52:39;;;;;;;0.80;0.70;;;26.10;95.70;;;;;;5051539;28;20425;-69
2021/10/27 11:55:08;;;;;;;2.10;1.90;;;26.30;92.50;;;;;;5054377;28;20711;-69
2021/10/27 11:57:34;;;;;;;1.23;1.10;;;26.40;91.50;;;;;;5053540;28;20461;-69
2021/10/27 12:00:04;;;;;;;0.90;0.60;;;26.20;89.40;;;;;;5051250;28;20472;-69
2021/10/27 12:02:46;;;;;;;0.80;0.60;;;26.50;89.50;;;;;;5054555;28;20421;-69
2021/10/27 12:05:38;;;;;;;0.83;0.70;;;26.50;87.20;;;;;;5053548;28;20428;-69
2021/10/27 12:09:02;;;;;;;0.80;0.60;;;26.20;84.90;;;;;;5052791;28;20432;-69
2021/10/27 12:19:26;;;;;;;0.80;0.63;;;26.10;84.30;;;;;;5051446;28;20421;-69
2021/10/27 12:22:08;;;;;;;1.00;0.87;;;25.80;84.80;;;;;;5052938;28;22375;-69
2021/10/27 12:24:40;;;;;;;0.80;0.50;;;26.10;81.80;;;;;;5053126;28;20421;-69
2021/10/27 12:27:28;;;;;;;0.97;0.70;;;26.20;83.90;;;;;;5054114;28;20518;-69
2021/10/27 12:29:56;;;;;;;0.90;0.60;;;25.50;84.30;;;;;;5049722;28;20425;-69
2021/10/27 12:32:23;;;;;;;0.93;0.60;;;25.90;85.10;;;;;;5053978;28;20425;-69
2021/10/27 12:35:00;;;;;;;1.10;1.00;;;26.20;84.80;;;;;;5052713;28;20425;-69
2021/10/27 12:37:38;;;;;;;0.90;0.70;;;25.00;83.30;;;;;;5052691;28;21092;-69
2021/10/27 12:40:27;;;;;;;1.17;1.07;;;25.90;85.20;;;;;;5044641;28;20525;-69
2021/10/27 12:43:06;;;;;;;0.80;0.60;;;25.20;85.70;;;;;;5053023;28;20477;-69
2021/10/27 12:46:01;;;;;;;0.90;0.80;;;25.00;88.90;;;;;;5052510;28;20417;-70
2021/10/27 12:48:38;;;;;;;0.80;0.70;;;24.80;87.10;;;;;;5038805;28;20433;-69
2021/10/27 12:51:08;;;;;;;0.80;0.60;;;24.60;90.00;;;;;;5052645;28;20464;-69
2021/10/27 12:54:01;;;;;;;1.10;0.70;;;24.70;88.80;;;;;;5053697;28;20448;-69
2021/10/27 12:56:30;;;;;;;0.80;0.50;;;24.50;89.70;;;;;;5051652;28;20452;-69
2021/10/27 12:59:16;;;;;;;0.90;0.80;;;24.50;91.40;;;;;;5052633;28;20495;-69
2021/10/27 13:04:18;;;;;;;0.80;0.70;;;24.20;90.80;;;;;;5053805;28;20434;-69
2021/10/27 13:14:40;;;;;;;0.80;0.57;;;23.80;92.80;;;;;;5051453;28;20425;-69
2021/10/27 13:22:13;;;;;;;0.83;0.70;;;24.10;91.10;;;;;;5050381;28;20171;-69
2021/10/27 13:30:16;;;;;;;0.70;0.50;;;23.20;94.70;;;;;;5052984;28;20435;-69
2021/10/27 13:32:49;;;;;;;0.90;0.70;;;23.60;95.00;;;;;;5053143;28;20938;-69
2021/10/27 13:35:15;;;;;;;0.80;0.50;;;24.20;95.10;;;;;;5043691;28;20448;-69
2021/10/27 13:37:40;;;;;;;0.87;0.67;;;24.30;93.30;;;;;;5052522;28;20481;-69
2021/10/27 13:40:06;;;;;;;0.80;0.60;;;24.30;92.80;;;;;;5052521;28;20642;-69
2021/10/27 13:42:41;;;;;;;0.77;0.60;;;23.60;92.80;;;;;;5052960;28;20542;-69
2021/10/27 13:47:47;;;;;;;1.10;1.00;;;25.40;94.00;;;;;;5052326;28;20557;-69
2021/10/27 13:58:43;;;;;;;0.80;0.60;;;24.60;91.90;;;;;;5044201;28;20848;-68
2021/10/27 14:06:46;;;;;;;0.80;0.63;;;23.70;93.40;;;;;;5050820;28;20478;-69
2021/10/27 14:12:04;;;;;;;0.97;0.80;;;23.00;95.80;;;;;;5051339;28;20437;-69
2021/10/27 14:14:36;;;;;;;0.80;0.60;;;22.40;96.70;;;;;;5049396;28;20425;-69
2021/10/27 14:22:58;;;;;;;0.80;0.60;;;22.20;99.50;;;;;;5048780;28;20429;-69
2021/10/27 14:59:18;;;;;;;0.80;0.60;;;18.10;99.90;;;;;;5029713;28;20484;-69
2021/10/27 15:20:54;;;;;;;0.70;0.50;;;19.20;99.90;;;;;;5051085;28;20455;-69
2021/10/27 15:23:39;;;;;;;1.90;1.80;;;19.70;99.90;;;;;;5050625;28;20508;-69
2021/10/27 15:29:08;;;;;;;0.70;0.50;;;19.90;99.90;;;;;;5050838;28;20436;-69
2021/10/27 15:31:41;;;;;;;1.13;0.70;;;19.80;99.90;;;;;;5050611;28;20840;-69
2021/10/27 15:42:22;;;;;;;0.80;0.60;;;19.00;99.90;;;;;;5051849;28;20408;-69
2021/10/27 15:50:40;;;;;;;0.70;0.50;;;17.80;99.90;;;;;;5051176;28;20570;-69
2021/10/27 15:53:07;;;;;;;0.90;0.67;;;17.50;99.90;;;;;;5050997;28;20759;-69
2021/10/27 15:55:33;;;;;;;2.83;0.90;;;17.30;99.90;;;;;;5050048;28;20421;-68
2021/10/27 15:57:58;;;;;;;0.70;0.50;;;17.00;99.90;;;;;;5049732;28;20443;-69
2021/10/27 16:00:24;;;;;;;10.90;2.37;;;16.90;99.90;;;;;;5050299;28;20202;-69
2021/10/27 16:02:50;;;;;;;1.03;0.93;;;16.70;99.90;;;;;;5049411;28;20186;-69
2021/10/27 16:05:16;;;;;;;0.80;0.70;;;16.60;99.90;;;;;;5046855;28;20424;-69
2021/10/27 16:07:43;;;;;;;1.47;0.87;;;16.50;99.90;;;;;;5050376;28;20201;-69
2021/10/27 16:10:14;;;;;;;0.70;0.50;;;16.30;99.90;;;;;;5049500;28;20179;-69
2021/10/27 16:12:40;;;;;;;0.70;0.60;;;16.10;99.90;;;;;;5048715;28;20437;-69
2021/10/27 16:15:14;;;;;;;0.90;0.80;;;16.10;99.90;;;;;;5046865;28;20437;-69
2021/10/27 16:17:40;;;;;;;0.70;0.60;;;15.90;99.90;;;;;;5048323;28;20626;-68
2021/10/27 16:20:07;;;;;;;0.80;0.60;;;15.80;99.90;;;;;;5050367;28;21007;-69
2021/10/27 16:22:33;;;;;;;0.90;0.90;;;15.60;99.90;;;;;;5047266;28;20424;-70
2021/10/27 16:24:58;;;;;;;1.10;0.60;;;15.50;99.90;;;;;;5046492;28;20425;-69
2021/10/27 16:27:25;;;;;;;2.10;1.73;;;15.40;99.90;;;;;;5049421;28;20253;-68
2021/10/27 16:29:50;;;;;;;4.67;0.70;;;15.30;99.90;;;;;;5051356;28;20175;-69
2021/10/27 16:32:17;;;;;;;1.20;1.00;;;15.30;99.90;;;;;;5053035;28;20486;-69
2021/10/27 16:34:43;;;;;;;0.70;0.60;;;15.30;99.90;;;;;;5054750;28;20166;-70
2021/10/27 16:37:10;;;;;;;0.77;0.63;;;15.20;99.90;;;;;;5052912;28;20437;-70
2021/10/27 16:39:36;;;;;;;0.70;0.50;;;15.10;99.90;;;;;;5053850;28;20516;-68
2021/10/27 16:42:02;;;;;;;0.80;0.70;;;15.00;99.90;;;;;;5053126;28;20512;-68
2021/10/27 16:44:28;;;;;;;1.87;1.10;;;15.00;99.90;;;;;;5054072;28;20166;-69
2021/10/27 16:46:53;;;;;;;0.70;0.60;;;15.00;99.90;;;;;;5053303;28;20517;-69
2021/10/27 16:49:19;;;;;;;0.70;0.50;;;14.90;99.90;;;;;;5053399;28;20175;-69
2021/10/27 16:51:44;;;;;;;3.07;1.33;;;14.80;99.90;;;;;;5054396;28;20171;-68
2021/10/27 16:54:10;;;;;;;0.70;0.50;;;14.70;99.90;;;;;;5053765;28;20179;-68
2021/10/27 16:56:37;;;;;;;0.70;0.60;;;14.60;99.90;;;;;;5053705;28;20202;-69
2021/10/27 16:59:02;;;;;;;1.00;0.60;;;14.50;99.90;;;;;;5051679;28;20436;-69
2021/10/27 17:01:28;;;;;;;0.73;0.60;;;14.50;99.90;;;;;;5050601;28;20452;-69
2021/10/27 17:03:54;;;;;;;4.73;1.27;;;14.50;99.90;;;;;;5054110;28;20175;-69
2021/10/27 17:06:20;;;;;;;0.70;0.50;;;14.40;99.90;;;;;;5053136;28;20568;-69
2021/10/27 17:08:45;;;;;;;0.90;0.73;;;14.40;99.90;;;;;;5052856;28;20432;-69
2021/10/27 17:11:12;;;;;;;1.10;1.00;;;14.30;99.90;;;;;;5053324;28;20426;-69
2021/10/27 17:13:38;;;;;;;0.80;0.70;;;14.30;99.90;;;;;;5052903;28;20202;-69
2021/10/27 17:16:03;;;;;;;0.77;0.60;;;14.20;99.90;;;;;;5051168;28;20476;-69